Time;durP1;ratioP1;P1;durP2;ratioP2;P2;SDS_P1;SDS_P2;PMS_P1;PMS_P2;Temp;Humidity;BMP_temperature;BMP_pressure;BME280_temperature;BME280_humidity;BME280_pressure;Samples;Min_cycle;Max_cycle;Signal;HPM_P1;HPM_P2
2021/01/13 00:01:42;;;;;;;4.35;2.50;;;-2.40;66.70;;;;;;5036566;28;20018;-68
2021/01/13 00:04:09;;;;;;;4.85;2.72;;;-2.30;67.80;;;;;;5036502;28;20105;-68
2021/01/13 00:06:35;;;;;;;3.75;2.55;;;-2.40;66.80;;;;;;5036589;28;20033;-68
2021/01/13 00:09:00;;;;;;;4.05;2.75;;;-2.40;66.00;;;;;;5036833;28;20291;-68
2021/01/13 00:11:27;;;;;;;4.65;3.05;;;-2.40;67.20;;;;;;5036449;28;20044;-68
2021/01/13 00:13:53;;;;;;;4.10;2.92;;;-2.40;66.50;;;;;;5036320;28;20033;-68
2021/01/13 00:16:18;;;;;;;4.60;2.53;;;-2.40;66.50;;;;;;5036715;28;20368;-68
2021/01/13 00:18:44;;;;;;;4.47;2.90;;;-2.40;66.40;;;;;;5036715;28;20047;-68
2021/01/13 00:21:17;;;;;;;5.35;2.88;;;-2.40;66.80;;;;;;5036407;28;20303;-68
2021/01/13 00:23:47;;;;;;;4.53;2.92;;;-2.40;67.20;;;;;;5036395;28;20151;-68
2021/01/13 00:26:22;;;;;;;4.72;2.90;;;-2.40;67.10;;;;;;5036334;28;20060;-69
2021/01/13 00:28:52;;;;;;;6.00;3.05;;;-2.40;66.00;;;;;;5036543;28;20037;-68
2021/01/13 00:31:18;;;;;;;4.72;2.92;;;-2.40;65.30;;;;;;5036630;28;20034;-68
2021/01/13 00:33:48;;;;;;;6.80;3.13;;;-2.30;65.80;;;;;;5036316;28;20029;-68
2021/01/13 00:36:24;;;;;;;5.20;2.90;;;-2.30;66.50;;;;;;5035220;28;20040;-68
2021/01/13 00:38:51;;;;;;;4.10;2.58;;;-2.30;65.50;;;;;;5036233;28;20426;-68
2021/01/13 00:41:17;;;;;;;3.78;2.60;;;-2.30;66.90;;;;;;5036253;28;20079;-68
2021/01/13 00:43:44;;;;;;;5.95;2.50;;;-2.30;65.70;;;;;;5036284;28;20026;-69
2021/01/13 00:46:10;;;;;;;9.98;3.42;;;-2.40;67.20;;;;;;5036436;28;20052;-68
2021/01/13 00:48:36;;;;;;;31.77;5.25;;;-2.40;68.70;;;;;;5036732;28;20026;-68
2021/01/13 00:51:02;;;;;;;9.30;3.58;;;-2.60;69.50;;;;;;5039828;28;20037;-68
2021/01/13 00:53:28;;;;;;;20.27;4.22;;;-2.60;68.40;;;;;;5039739;28;20360;-68
2021/01/13 00:55:54;;;;;;;11.07;4.65;;;-2.60;69.10;;;;;;5040079;28;20033;-68
2021/01/13 00:58:22;;;;;;;8.43;3.38;;;-2.60;68.30;;;;;;5040024;28;20029;-68
2021/01/13 01:00:48;;;;;;;14.75;4.10;;;-2.50;67.00;;;;;;5039711;28;20341;-68
2021/01/13 01:03:13;;;;;;;8.93;3.58;;;-2.40;68.60;;;;;;5039672;28;20022;-68
2021/01/13 01:05:39;;;;;;;4.25;2.45;;;-2.40;66.70;;;;;;5039542;28;20401;-68
2021/01/13 01:08:05;;;;;;;3.28;2.40;;;-2.40;67.20;;;;;;5039869;28;20072;-68
2021/01/13 01:10:33;;;;;;;3.78;2.40;;;-2.40;67.80;;;;;;5039521;28;20033;-68
2021/01/13 01:12:59;;;;;;;6.40;3.30;;;-2.40;67.00;;;;;;5039376;28;20033;-68
2021/01/13 01:15:25;;;;;;;6.97;3.88;;;-2.40;69.00;;;;;;5039369;28;20364;-68
2021/01/13 01:17:52;;;;;;;6.53;3.65;;;-2.50;67.50;;;;;;5039357;28;20021;-68
2021/01/13 01:20:18;;;;;;;7.28;3.75;;;-2.50;68.20;;;;;;5039323;28;20329;-68
2021/01/13 01:22:51;;;;;;;5.15;3.38;;;-2.50;69.70;;;;;;5039229;28;20034;-68
2021/01/13 01:25:16;;;;;;;6.15;3.90;;;-2.50;68.10;;;;;;5039182;28;20038;-68
2021/01/13 01:27:42;;;;;;;4.88;3.10;;;-2.40;68.30;;;;;;5039788;28;20116;-68
2021/01/13 01:30:11;;;;;;;5.13;3.17;;;-2.40;68.80;;;;;;5039412;28;20029;-68
2021/01/13 01:32:36;;;;;;;5.95;3.42;;;-2.50;68.10;;;;;;5039261;28;20365;-68
2021/01/13 01:35:03;;;;;;;17.75;4.88;;;-2.50;69.20;;;;;;5039030;28;20044;-68
2021/01/13 01:37:34;;;;;;;11.32;3.70;;;-2.50;68.10;;;;;;5039252;28;20018;-68
2021/01/13 01:39:59;;;;;;;5.20;3.15;;;-2.50;67.80;;;;;;5039275;28;20029;-68
2021/01/13 01:42:25;;;;;;;5.15;2.95;;;-2.50;67.00;;;;;;5039188;28;20045;-68
2021/01/13 01:44:54;;;;;;;4.68;2.75;;;-2.40;66.40;;;;;;5038753;28;20025;-68
2021/01/13 01:47:50;;;;;;;4.35;2.78;;;-2.40;67.20;;;;;;5038855;28;20097;-68
2021/01/13 01:50:21;;;;;;;10.48;3.85;;;-2.40;67.90;;;;;;5038703;28;20037;-68
2021/01/13 01:52:53;;;;;;;13.30;3.85;;;-2.10;63.40;;;;;;5038623;28;20029;-68
2021/01/13 01:55:24;;;;;;;16.38;4.70;;;-1.90;63.50;;;;;;5038841;28;20037;-68
2021/01/13 01:57:58;;;;;;;8.60;3.83;;;-1.80;64.00;;;;;;5038907;28;20425;-68
2021/01/13 02:00:30;;;;;;;17.60;5.28;;;-1.80;62.70;;;;;;5037843;28;20049;-68
2021/01/13 02:03:06;;;;;;;10.82;4.50;;;-1.70;64.00;;;;;;5038689;28;20037;-68
2021/01/13 02:05:35;;;;;;;5.38;3.03;;;-1.80;64.80;;;;;;5038760;28;20096;-68
2021/01/13 02:08:02;;;;;;;4.90;3.05;;;-1.90;66.30;;;;;;5038594;28;20097;-68
2021/01/13 02:10:28;;;;;;;6.38;3.72;;;-2.10;67.50;;;;;;5038394;28;20109;-68
2021/01/13 02:13:07;;;;;;;6.88;3.15;;;-2.20;67.30;;;;;;5038262;28;20104;-68
2021/01/13 02:15:33;;;;;;;6.72;3.38;;;-2.30;66.00;;;;;;5038365;28;20029;-68
2021/01/13 02:18:04;;;;;;;4.28;3.00;;;-2.30;65.50;;;;;;5037227;28;20099;-68
2021/01/13 02:20:31;;;;;;;4.80;3.33;;;-2.50;65.90;;;;;;5038196;28;20029;-68
2021/01/13 02:23:00;;;;;;;5.70;2.63;;;-2.50;66.00;;;;;;5038150;28;20507;-68
2021/01/13 02:25:41;;;;;;;5.13;3.40;;;-2.50;68.10;;;;;;5037887;28;20112;-68
2021/01/13 02:28:12;;;;;;;3.95;2.65;;;-2.50;68.20;;;;;;5038360;28;20037;-68
2021/01/13 02:30:55;;;;;;;5.90;3.42;;;-2.60;69.80;;;;;;5038081;28;20433;-68
2021/01/13 02:33:36;;;;;;;3.58;2.67;;;-2.60;70.10;;;;;;5037945;28;20402;-68
2021/01/13 02:36:18;;;;;;;4.78;2.97;;;-2.70;69.80;;;;;;5037871;28;20056;-68
2021/01/13 02:38:49;;;;;;;8.80;2.90;;;-2.70;69.50;;;;;;5037988;28;20022;-68
2021/01/13 02:41:17;;;;;;;4.47;2.55;;;-2.70;69.20;;;;;;5037973;28;20025;-68
2021/01/13 02:43:55;;;;;;;4.57;2.72;;;-2.70;68.30;;;;;;5038015;28;20049;-68
2021/01/13 02:46:55;;;;;;;4.68;3.08;;;-2.70;66.40;;;;;;5037978;28;20060;-68
2021/01/13 02:49:31;;;;;;;5.22;2.60;;;-2.50;66.70;;;;;;5037652;28;20447;-68
2021/01/13 02:51:58;;;;;;;4.25;2.33;;;-2.50;66.50;;;;;;5037631;28;20072;-68
2021/01/13 02:54:42;;;;;;;3.60;2.10;;;-2.50;65.80;;;;;;5037607;28;20366;-68
2021/01/13 02:57:20;;;;;;;3.33;1.75;;;-2.50;65.10;;;;;;5037839;28;20040;-68
2021/01/13 02:59:49;;;;;;;3.03;2.05;;;-2.50;67.20;;;;;;5037537;28;20059;-68
2021/01/13 03:02:15;;;;;;;3.45;2.05;;;-2.50;66.80;;;;;;5037569;28;20028;-68
2021/01/13 03:04:42;;;;;;;2.55;1.52;;;-2.50;66.20;;;;;;5037294;28;20076;-68
2021/01/13 03:07:15;;;;;;;2.47;1.95;;;-2.60;65.40;;;;;;5037630;28;20355;-68
2021/01/13 03:09:46;;;;;;;5.18;2.03;;;-2.60;64.70;;;;;;5037440;28;20022;-68
2021/01/13 03:12:24;;;;;;;3.63;2.20;;;-2.60;66.30;;;;;;5037141;28;20067;-68
2021/01/13 03:14:53;;;;;;;5.93;3.05;;;-2.50;67.20;;;;;;5037432;28;20053;-68
2021/01/13 03:17:44;;;;;;;3.38;2.33;;;-2.50;66.80;;;;;;5037432;28;20368;-68
2021/01/13 03:20:13;;;;;;;4.68;2.17;;;-2.60;67.10;;;;;;5037376;28;20060;-68
2021/01/13 03:23:06;;;;;;;3.63;2.13;;;-2.60;67.30;;;;;;5037264;28;20049;-68
2021/01/13 03:25:56;;;;;;;3.30;2.08;;;-2.60;64.60;;;;;;5036691;28;20485;-68
2021/01/13 03:28:24;;;;;;;3.17;2.05;;;-2.60;65.60;;;;;;5037253;28;20345;-68
2021/01/13 03:30:52;;;;;;;4.05;2.30;;;-2.60;65.40;;;;;;5036942;28;20025;-68
2021/01/13 03:33:24;;;;;;;3.30;2.10;;;-2.50;64.90;;;;;;5036891;28;20053;-68
2021/01/13 03:36:03;;;;;;;6.13;2.10;;;-2.40;65.70;;;;;;5037069;28;20103;-68
2021/01/13 03:38:30;;;;;;;4.60;1.85;;;-2.30;64.20;;;;;;5037346;28;20021;-68
2021/01/13 03:41:04;;;;;;;2.97;1.90;;;-2.30;65.90;;;;;;5037167;28;20033;-68
2021/01/13 03:43:40;;;;;;;3.97;2.00;;;-2.20;65.30;;;;;;5036719;28;20128;-68
2021/01/13 03:46:09;;;;;;;4.97;2.17;;;-2.20;62.20;;;;;;5036819;28;20326;-68
2021/01/13 03:48:51;;;;;;;3.83;2.22;;;-2.10;61.40;;;;;;5036706;28;20418;-68
2021/01/13 03:51:19;;;;;;;5.20;2.42;;;-2.10;61.70;;;;;;5036735;28;20349;-68
2021/01/13 03:53:47;;;;;;;3.25;2.03;;;-2.10;62.40;;;;;;5036586;28;20068;-68
2021/01/13 03:56:26;;;;;;;5.13;1.75;;;-2.10;63.40;;;;;;5035457;28;20030;-68
2021/01/13 03:58:52;;;;;;;3.40;1.95;;;-2.20;63.10;;;;;;5036654;28;20134;-68
2021/01/13 04:01:21;;;;;;;3.80;2.10;;;-2.20;64.50;;;;;;5036873;28;20029;-68
2021/01/13 04:04:21;;;;;;;3.40;1.90;;;-2.30;63.80;;;;;;5035493;28;20326;-68
2021/01/13 04:06:57;;;;;;;3.17;2.25;;;-2.30;63.90;;;;;;5036539;28;20052;-68
2021/01/13 04:09:23;;;;;;;8.80;3.45;;;-2.40;66.40;;;;;;5036521;28;20032;-68
2021/01/13 04:11:49;;;;;;;5.95;2.65;;;-2.50;67.00;;;;;;5036602;28;20030;-68
2021/01/13 04:14:21;;;;;;;3.95;2.20;;;-2.50;65.90;;;;;;5036564;28;20026;-68
2021/01/13 04:16:46;;;;;;;3.40;2.17;;;-2.50;66.60;;;;;;5036493;28;20083;-68
2021/01/13 04:19:12;;;;;;;5.28;2.83;;;-2.60;67.10;;;;;;5035354;28;20029;-68
2021/01/13 04:21:38;;;;;;;3.97;2.42;;;-2.60;67.70;;;;;;5036467;28;20061;-68
2021/01/13 04:24:05;;;;;;;4.55;2.58;;;-2.60;66.20;;;;;;5037752;28;20053;-68
2021/01/13 04:26:31;;;;;;;5.18;2.50;;;-2.60;67.50;;;;;;5040247;28;20049;-68
2021/01/13 04:28:57;;;;;;;3.25;1.73;;;-2.50;65.80;;;;;;5040277;28;20026;-68
2021/01/13 04:31:26;;;;;;;5.78;2.22;;;-2.50;67.10;;;;;;5039432;28;20055;-68
2021/01/13 04:33:55;;;;;;;3.28;2.30;;;-2.50;65.00;;;;;;5040090;28;20026;-68
2021/01/13 04:36:21;;;;;;;2.75;1.73;;;-2.50;66.70;;;;;;5040214;28;20029;-68
2021/01/13 04:38:47;;;;;;;5.03;2.33;;;-2.50;66.30;;;;;;5040126;28;20544;-68
2021/01/13 04:41:17;;;;;;;5.00;2.72;;;-2.50;65.40;;;;;;5040143;28;20417;-68
2021/01/13 04:44:01;;;;;;;2.67;1.60;;;-2.50;64.30;;;;;;5040303;28;20056;-68
2021/01/13 04:46:31;;;;;;;4.15;2.40;;;-2.60;63.90;;;;;;5040007;28;20033;-68
2021/01/13 04:49:12;;;;;;;2.70;1.73;;;-2.50;64.40;;;;;;5040187;28;20021;-68
2021/01/13 04:51:40;;;;;;;3.25;1.90;;;-2.50;65.10;;;;;;5040132;28;20029;-68
2021/01/13 04:54:10;;;;;;;5.00;2.08;;;-2.50;64.10;;;;;;5039783;28;20369;-68
2021/01/13 04:57:12;;;;;;;3.58;2.10;;;-2.50;65.80;;;;;;5039754;28;20113;-68
2021/01/13 05:00:07;;;;;;;8.30;2.95;;;-2.60;65.70;;;;;;5039043;28;20053;-68
2021/01/13 05:02:44;;;;;;;13.18;5.05;;;-2.60;65.70;;;;;;5039951;28;20053;-68
2021/01/13 05:05:21;;;;;;;9.43;3.08;;;-2.60;65.40;;;;;;5039584;28;20033;-68
2021/01/13 05:08:26;;;;;;;11.10;4.55;;;-2.60;66.30;;;;;;5039894;28;20037;-68
2021/01/13 05:11:12;;;;;;;5.90;3.17;;;-2.60;66.20;;;;;;5039544;28;20475;-68
2021/01/13 05:13:42;;;;;;;3.90;2.20;;;-2.70;66.50;;;;;;5039542;28;20029;-68
2021/01/13 05:16:12;;;;;;;6.57;2.63;;;-2.70;66.40;;;;;;5039492;28;20020;-68
2021/01/13 05:18:49;;;;;;;10.57;4.68;;;-2.70;66.90;;;;;;5039388;28;20025;-68
2021/01/13 05:21:39;;;;;;;8.25;2.75;;;-2.70;66.70;;;;;;5039432;28;20418;-68
2021/01/13 05:24:07;;;;;;;5.00;2.60;;;-2.70;65.70;;;;;;5039538;28;20033;-68
2021/01/13 05:26:41;;;;;;;5.65;2.72;;;-2.30;61.70;;;;;;5038994;28;20096;-68
2021/01/13 05:29:36;;;;;;;8.57;2.55;;;-1.80;60.40;;;;;;5039901;28;20366;-68
2021/01/13 05:32:03;;;;;;;5.35;2.20;;;-1.70;63.10;;;;;;5039578;28;20033;-68
2021/01/13 05:34:34;;;;;;;7.05;3.30;;;-1.70;62.70;;;;;;5039104;28;20418;-68
2021/01/13 05:37:17;;;;;;;6.68;3.05;;;-1.80;61.50;;;;;;5037123;28;20030;-68
2021/01/13 05:39:47;;;;;;;2.72;1.80;;;-2.00;64.10;;;;;;5037957;28;20022;-68
2021/01/13 05:42:15;;;;;;;2.67;1.60;;;-2.10;63.10;;;;;;5039059;28;20026;-68
2021/01/13 05:44:42;;;;;;;2.03;1.50;;;-2.20;63.30;;;;;;5039028;28;20163;-68
2021/01/13 05:47:38;;;;;;;2.47;1.65;;;-2.20;65.60;;;;;;5038909;28;20033;-68
2021/01/13 05:50:04;;;;;;;2.58;1.40;;;-2.30;66.10;;;;;;5038542;28;20045;-68
2021/01/13 05:52:32;;;;;;;3.00;1.45;;;-2.40;66.50;;;;;;5038967;28;20014;-68
2021/01/13 05:54:58;;;;;;;3.17;1.95;;;-2.50;65.90;;;;;;5038944;28;20313;-68
2021/01/13 05:57:24;;;;;;;2.33;1.45;;;-2.50;66.80;;;;;;5038753;28;20104;-68
2021/01/13 05:59:52;;;;;;;2.90;1.65;;;-2.50;65.00;;;;;;5038730;28;20017;-68
2021/01/13 06:02:19;;;;;;;2.33;1.42;;;-2.60;63.80;;;;;;5038576;28;20021;-68
2021/01/13 06:04:47;;;;;;;15.85;2.00;;;-2.60;63.30;;;;;;5038680;28;20369;-68
2021/01/13 06:07:21;;;;;;;13.25;1.75;;;-2.40;62.70;;;;;;5038442;28;20048;-68
2021/01/13 06:09:53;;;;;;;3.97;1.60;;;-2.40;64.80;;;;;;5038731;28;20425;-68
2021/01/13 06:12:20;;;;;;;6.15;1.50;;;-2.40;65.30;;;;;;5037367;28;20410;-68
2021/01/13 06:14:50;;;;;;;3.95;2.40;;;-2.40;65.10;;;;;;5038382;28;20421;-68
2021/01/13 06:17:24;;;;;;;4.20;1.90;;;-2.40;65.50;;;;;;5038326;28;20028;-68
2021/01/13 06:19:50;;;;;;;10.02;2.55;;;-2.40;66.70;;;;;;5038208;28;20021;-68
2021/01/13 06:22:16;;;;;;;6.53;2.20;;;-2.50;66.20;;;;;;5038799;28;20025;-68
2021/01/13 06:24:42;;;;;;;3.67;2.10;;;-2.60;64.80;;;;;;5038525;28;20026;-68
2021/01/13 06:27:18;;;;;;;5.05;2.70;;;-2.50;65.70;;;;;;5037955;28;20052;-68
2021/01/13 06:29:52;;;;;;;3.80;2.25;;;-2.30;64.40;;;;;;5038006;28;20029;-68
2021/01/13 06:32:31;;;;;;;4.72;3.03;;;-2.20;63.50;;;;;;5038294;28;20021;-68
2021/01/13 06:35:15;;;;;;;3.55;1.90;;;-2.10;63.60;;;;;;5038179;28;20325;-68
2021/01/13 06:37:51;;;;;;;3.50;1.90;;;-2.10;63.80;;;;;;5038150;28;20028;-68
2021/01/13 06:40:20;;;;;;;3.03;1.88;;;-2.20;64.70;;;;;;5037884;28;20101;-68
2021/01/13 06:42:47;;;;;;;3.75;2.65;;;-2.20;64.40;;;;;;5038138;28;20018;-68
2021/01/13 06:45:13;;;;;;;3.20;2.13;;;-2.30;64.40;;;;;;5037806;28;20029;-68
2021/01/13 06:47:55;;;;;;;3.75;1.75;;;-2.30;65.40;;;;;;5037581;28;20071;-68
2021/01/13 06:50:31;;;;;;;2.83;1.75;;;-2.30;65.00;;;;;;5037623;28;20018;-68
2021/01/13 06:52:58;;;;;;;3.67;1.75;;;-2.30;64.50;;;;;;5037593;28;20072;-68
2021/01/13 06:55:32;;;;;;;3.72;1.75;;;-2.30;64.50;;;;;;5037568;28;20104;-68
2021/01/13 06:58:14;;;;;;;3.80;2.40;;;-2.30;63.80;;;;;;5037492;28;20425;-68
2021/01/13 07:00:41;;;;;;;21.30;9.75;;;-2.40;64.20;;;;;;5037462;28;20033;-68
2021/01/13 07:03:25;;;;;;;443.27;246.25;;;-2.20;65.40;;;;;;5037575;28;20326;-68
2021/01/13 07:05:52;;;;;;;58.25;31.20;;;-2.10;63.90;;;;;;5037270;28;20034;-68
2021/01/13 07:08:19;;;;;;;10.48;6.28;;;-2.00;64.40;;;;;;5036276;28;20035;-68
2021/01/13 07:10:45;;;;;;;32.70;8.38;;;-1.70;63.70;;;;;;5037206;28;20040;-68
2021/01/13 07:13:14;;;;;;;20.13;5.60;;;-1.60;65.40;;;;;;5037354;28;20022;-68
2021/01/13 07:15:40;;;;;;;6.03;2.85;;;-1.50;63.60;;;;;;5037184;28;20025;-68
2021/01/13 07:18:06;;;;;;;14.25;5.72;;;-1.50;64.60;;;;;;5037176;28;20018;-68
2021/01/13 07:20:39;;;;;;;9.25;4.50;;;-1.50;62.90;;;;;;5037151;28;20026;-68
2021/01/13 07:23:09;;;;;;;8.52;4.07;;;-1.30;62.60;;;;;;5037093;28;20022;-68
2021/01/13 07:25:50;;;;;;;5.63;4.13;;;-1.30;62.70;;;;;;5036819;28;20376;-69
2021/01/13 07:28:17;;;;;;;8.77;3.97;;;-1.30;64.50;;;;;;5037675;28;20052;-68
2021/01/13 07:30:44;;;;;;;7.45;3.90;;;-1.30;64.70;;;;;;5036930;28;20512;-68
2021/01/13 07:33:14;;;;;;;6.75;3.20;;;-1.20;63.00;;;;;;5036906;28;20021;-68
2021/01/13 07:35:44;;;;;;;5.40;3.25;;;-1.10;63.70;;;;;;5036945;28;20021;-68
2021/01/13 07:38:13;;;;;;;4.82;3.15;;;-1.10;63.40;;;;;;5037543;28;20332;-68
2021/01/13 07:40:50;;;;;;;5.70;3.25;;;-1.00;62.70;;;;;;5037063;28;20033;-68
2021/01/13 07:43:44;;;;;;;6.55;3.25;;;-0.90;62.50;;;;;;5037009;28;20026;-68
2021/01/13 07:46:27;;;;;;;5.72;3.25;;;-0.90;62.70;;;;;;5036155;28;20318;-68
2021/01/13 07:49:47;;;;;;;4.57;2.83;;;-0.80;62.60;;;;;;5036728;28;20033;-68
2021/01/13 07:52:17;;;;;;;6.55;3.60;;;-0.70;62.00;;;;;;5034975;28;20358;-68
2021/01/13 07:54:48;;;;;;;5.38;3.05;;;-0.70;62.40;;;;;;5036404;28;20048;-68
2021/01/13 07:57:23;;;;;;;5.57;3.90;;;-0.70;62.00;;;;;;5037002;28;20034;-68
2021/01/13 08:00:36;;;;;;;5.07;3.20;;;-0.60;61.60;;;;;;5036253;28;20308;-68
2021/01/13 08:03:38;;;;;;;5.68;3.40;;;-0.50;60.80;;;;;;5036827;28;20483;-68
2021/01/13 08:06:45;;;;;;;6.20;3.33;;;-0.40;61.00;;;;;;5036567;28;20022;-68
2021/01/13 08:09:14;;;;;;;5.37;3.80;;;-0.20;62.20;;;;;;5036877;28;20029;-68
2021/01/13 08:12:10;;;;;;;5.32;3.00;;;0.10;62.50;;;;;;5036687;28;20112;-68
2021/01/13 08:15:13;;;;;;;4.05;2.88;;;0.10;61.00;;;;;;5036663;28;20045;-68
2021/01/13 08:17:50;;;;;;;6.05;3.45;;;0.20;59.70;;;;;;5036504;28;20033;-68
2021/01/13 08:20:53;;;;;;;3.92;2.72;;;0.20;59.10;;;;;;5036819;28;20306;-68
2021/01/13 08:23:29;;;;;;;4.65;3.25;;;0.20;59.00;;;;;;5036696;28;20032;-68
2021/01/13 08:25:57;;;;;;;5.65;3.55;;;0.20;59.60;;;;;;5036456;28;20048;-69
2021/01/13 08:28:24;;;;;;;4.85;2.95;;;0.20;61.70;;;;;;5035369;28;20037;-68
2021/01/13 08:30:50;;;;;;;4.38;3.20;;;0.30;61.00;;;;;;5035295;28;20441;-68
2021/01/13 08:33:24;;;;;;;4.97;3.03;;;0.50;59.40;;;;;;5036252;28;20033;-68
2021/01/13 08:36:00;;;;;;;5.35;2.97;;;0.70;59.50;;;;;;5036408;28;20018;-68
2021/01/13 08:38:26;;;;;;;4.55;2.85;;;0.90;59.10;;;;;;5036540;28;20032;-68
2021/01/13 08:40:52;;;;;;;7.30;2.75;;;1.10;56.60;;;;;;5035160;28;20417;-68
2021/01/13 08:43:19;;;;;;;3.97;2.65;;;1.10;56.50;;;;;;5036278;28;20025;-68
2021/01/13 08:45:48;;;;;;;5.18;3.25;;;1.30;59.80;;;;;;5036468;28;20436;-68
2021/01/13 08:48:21;;;;;;;3.72;2.58;;;1.50;60.10;;;;;;5036222;28;20137;-69
2021/01/13 08:51:19;;;;;;;4.82;2.97;;;1.60;58.70;;;;;;5036166;28;20429;-68
2021/01/13 08:53:45;;;;;;;4.90;3.22;;;1.60;59.10;;;;;;5035783;28;20049;-68
2021/01/13 08:56:12;;;;;;;6.25;3.20;;;1.80;58.10;;;;;;5036040;28;20105;-68
2021/01/13 08:58:53;;;;;;;7.63;3.30;;;1.90;57.70;;;;;;5036389;28;20315;-68
2021/01/13 09:01:19;;;;;;;5.28;3.33;;;1.90;57.40;;;;;;5036128;28;20067;-68
2021/01/13 09:03:51;;;;;;;5.80;3.63;;;1.90;58.50;;;;;;5036079;28;20108;-68
2021/01/13 09:06:19;;;;;;;5.82;3.42;;;1.80;57.10;;;;;;5036276;28;20099;-69
2021/01/13 09:08:52;;;;;;;5.93;3.28;;;1.90;57.90;;;;;;5036266;28;20030;-68
2021/01/13 09:11:37;;;;;;;6.78;3.97;;;2.00;59.90;;;;;;5039006;28;20053;-68
2021/01/13 09:14:27;;;;;;;6.43;4.40;;;2.20;57.10;;;;;;5039504;28;20029;-69
2021/01/13 09:16:54;;;;;;;10.57;3.67;;;2.50;57.40;;;;;;5039741;28;20032;-69
2021/01/13 09:19:39;;;;;;;5.18;3.63;;;2.90;55.50;;;;;;5039561;28;20033;-69
2021/01/13 09:22:08;;;;;;;4.68;3.38;;;3.30;54.30;;;;;;5039777;28;20033;-69
2021/01/13 09:24:41;;;;;;;4.10;3.05;;;3.70;54.40;;;;;;5039235;28;20414;-69
2021/01/13 09:27:09;;;;;;;6.00;3.63;;;4.00;53.80;;;;;;5039173;28;20100;-68
2021/01/13 09:29:54;;;;;;;4.70;3.10;;;4.10;53.90;;;;;;5039356;28;20028;-69
2021/01/13 09:32:21;;;;;;;7.45;4.75;;;4.10;51.40;;;;;;5039360;28;20033;-69
2021/01/13 09:34:55;;;;;;;3.75;2.90;;;4.20;53.40;;;;;;5039244;28;20030;-69
2021/01/13 09:37:22;;;;;;;3.72;2.55;;;4.20;51.40;;;;;;5039698;28;20025;-69
2021/01/13 09:40:02;;;;;;;3.50;2.47;;;4.20;51.60;;;;;;5037997;28;20026;-69
2021/01/13 09:42:54;;;;;;;2.90;1.88;;;4.20;51.40;;;;;;5039014;28;20026;-69
2021/01/13 09:45:20;;;;;;;2.97;1.92;;;4.60;47.60;;;;;;5038662;28;20059;-69
2021/01/13 09:47:46;;;;;;;2.05;1.40;;;5.20;45.90;;;;;;5039072;28;20321;-69
2021/01/13 09:50:13;;;;;;;1.98;1.40;;;6.00;43.20;;;;;;5038903;28;20325;-69
2021/01/13 09:52:43;;;;;;;5.30;3.92;;;7.10;42.30;;;;;;5038769;28;20159;-69
2021/01/13 09:55:10;;;;;;;5.50;3.40;;;8.20;47.30;;;;;;5039040;28;20099;-69
2021/01/13 09:57:39;;;;;;;4.40;3.13;;;9.40;43.60;;;;;;5037678;28;20032;-69
2021/01/13 10:00:13;;;;;;;5.25;2.70;;;10.20;42.40;;;;;;5038858;28;20024;-69
2021/01/13 10:02:40;;;;;;;3.08;2.30;;;11.10;38.30;;;;;;5038614;28;20091;-67
2021/01/13 10:05:07;;;;;;;3.92;2.38;;;11.60;36.30;;;;;;5038649;28;20100;-67
2021/01/13 10:07:35;;;;;;;5.13;2.95;;;12.20;37.10;;;;;;5038673;28;20032;-67
2021/01/13 10:10:03;;;;;;;5.50;3.28;;;12.70;38.30;;;;;;5042678;28;20443;-69
2021/01/13 10:12:35;;;;;;;5.63;3.65;;;12.60;39.60;;;;;;5043068;28;20109;-69
2021/01/13 10:15:04;;;;;;;3.45;2.78;;;12.60;37.60;;;;;;5038455;28;20417;-69
2021/01/13 10:17:31;;;;;;;3.80;3.20;;;12.50;37.60;;;;;;5038349;28;20025;-69
2021/01/13 10:19:57;;;;;;;6.65;3.08;;;12.90;36.70;;;;;;5038230;28;20509;-69
2021/01/13 10:22:29;;;;;;;5.15;3.38;;;13.00;36.90;;;;;;5037664;28;20101;-69
2021/01/13 10:24:56;;;;;;;4.25;3.22;;;12.60;35.80;;;;;;5038053;28;20025;-69
2021/01/13 10:27:22;;;;;;;4.38;2.88;;;12.90;36.10;;;;;;5037974;28;20462;-67
2021/01/13 10:29:48;;;;;;;4.00;3.13;;;13.40;37.20;;;;;;5038212;28;20050;-67
2021/01/13 10:32:15;;;;;;;5.07;2.70;;;13.60;36.40;;;;;;5038058;28;20302;-67
2021/01/13 10:34:41;;;;;;;2.08;1.70;;;13.80;34.80;;;;;;5036857;28;20418;-67
2021/01/13 10:37:08;;;;;;;1.83;1.35;;;14.20;33.90;;;;;;5038191;28;20072;-67
2021/01/13 10:39:34;;;;;;;1.67;1.30;;;14.20;32.10;;;;;;5037950;28;20417;-67
2021/01/13 10:42:07;;;;;;;2.58;1.75;;;14.00;31.70;;;;;;5037934;28;20068;-67
2021/01/13 10:44:34;;;;;;;2.60;1.25;;;13.90;33.40;;;;;;5037732;28;20349;-67
2021/01/13 10:47:00;;;;;;;1.98;1.42;;;13.90;34.00;;;;;;5037768;28;20021;-67
2021/01/13 10:49:30;;;;;;;4.60;3.38;;;14.00;32.20;;;;;;5037969;28;20025;-67
2021/01/13 10:52:00;;;;;;;5.32;3.17;;;14.00;34.90;;;;;;5037720;28;20402;-67
2021/01/13 10:54:29;;;;;;;2.92;2.08;;;14.20;36.20;;;;;;5037321;28;20029;-67
2021/01/13 10:57:07;;;;;;;3.10;1.95;;;14.10;33.10;;;;;;5037892;28;20135;-67
2021/01/13 10:59:34;;;;;;;3.60;2.10;;;14.20;34.00;;;;;;5037801;28;20018;-67
2021/01/13 11:02:04;;;;;;;4.53;3.08;;;14.00;33.20;;;;;;5037550;28;20040;-69
2021/01/13 11:04:32;;;;;;;4.15;3.13;;;13.70;34.10;;;;;;5037385;28;20498;-67
2021/01/13 11:07:08;;;;;;;4.47;3.28;;;13.20;35.10;;;;;;5037408;28;20025;-69
2021/01/13 11:09:37;;;;;;;5.70;3.33;;;13.10;36.30;;;;;;5037355;28;20120;-67
2021/01/13 11:12:03;;;;;;;5.57;3.75;;;13.30;36.30;;;;;;5037259;28;20112;-67
2021/01/13 11:14:40;;;;;;;5.50;3.80;;;12.90;35.60;;;;;;5036039;28;20068;-67
2021/01/13 11:17:15;;;;;;;3.20;2.83;;;12.90;37.60;;;;;;5037570;28;20075;-67
2021/01/13 11:19:55;;;;;;;4.10;2.70;;;12.90;36.80;;;;;;5037323;28;20028;-67
2021/01/13 11:22:47;;;;;;;6.47;3.75;;;13.30;35.80;;;;;;5037470;28;20025;-67
2021/01/13 11:25:36;;;;;;;2.75;1.60;;;13.30;35.60;;;;;;5036030;28;20029;-67
2021/01/13 11:28:06;;;;;;;1.90;1.45;;;13.30;33.20;;;;;;5037085;28;20437;-67
2021/01/13 11:30:34;;;;;;;3.08;2.33;;;13.90;33.60;;;;;;5036965;28;20065;-67
2021/01/13 11:33:02;;;;;;;2.78;1.40;;;14.10;34.90;;;;;;5036341;28;20330;-67
2021/01/13 11:35:33;;;;;;;2.25;1.27;;;14.30;32.40;;;;;;5036790;28;20079;-67
2021/01/13 11:38:17;;;;;;;3.28;2.30;;;14.30;32.20;;;;;;5037228;28;20066;-68
2021/01/13 11:40:57;;;;;;;3.03;2.33;;;14.60;33.60;;;;;;5036966;28;20029;-67
2021/01/13 11:43:59;;;;;;;2.15;1.63;;;14.50;32.50;;;;;;5036940;28;20033;-67
2021/01/13 11:46:38;;;;;;;4.15;2.67;;;13.50;33.80;;;;;;5037064;28;20025;-67
2021/01/13 11:49:13;;;;;;;2.42;1.70;;;13.40;36.70;;;;;;5037235;28;20032;-67
2021/01/13 11:51:42;;;;;;;2.03;1.42;;;13.70;36.70;;;;;;5036742;28;20030;-67
2021/01/13 11:54:08;;;;;;;3.10;1.90;;;14.00;35.40;;;;;;5036561;28;20112;-67
2021/01/13 11:56:33;;;;;;;2.67;1.70;;;14.00;34.60;;;;;;5036557;28;20092;-67
2021/01/13 11:58:59;;;;;;;3.30;2.08;;;14.00;35.10;;;;;;5036600;28;20418;-67
2021/01/13 12:01:26;;;;;;;3.00;1.80;;;14.00;34.80;;;;;;5037192;28;20337;-67
2021/01/13 12:04:00;;;;;;;3.63;1.98;;;13.40;34.60;;;;;;5036561;28;20044;-67
2021/01/13 12:06:26;;;;;;;3.92;2.00;;;13.60;36.20;;;;;;5036623;28;20038;-67
2021/01/13 12:08:52;;;;;;;2.75;1.98;;;13.90;35.70;;;;;;5036554;28;20025;-67
2021/01/13 12:11:17;;;;;;;3.60;1.77;;;14.00;35.00;;;;;;5036839;28;20034;-67
2021/01/13 12:13:45;;;;;;;3.88;2.65;;;13.90;36.10;;;;;;5036496;28;20025;-67
2021/01/13 12:16:22;;;;;;;5.03;3.10;;;13.60;37.40;;;;;;5036772;28;20056;-67
2021/01/13 12:18:53;;;;;;;3.67;2.92;;;13.60;37.00;;;;;;5036503;28;20030;-67
2021/01/13 12:21:21;;;;;;;3.85;2.70;;;13.60;36.80;;;;;;5036662;28;20057;-67
2021/01/13 12:23:47;;;;;;;6.25;3.72;;;13.50;37.50;;;;;;5036673;28;20314;-67
2021/01/13 12:26:15;;;;;;;4.93;3.30;;;13.20;37.80;;;;;;5036430;28;20045;-67
2021/01/13 12:28:46;;;;;;;5.05;3.67;;;12.90;38.00;;;;;;5036359;28;20037;-67
2021/01/13 12:31:13;;;;;;;6.72;3.58;;;12.80;38.60;;;;;;5036433;28;20025;-69
2021/01/13 12:33:48;;;;;;;5.55;4.07;;;12.40;38.10;;;;;;5036525;28;20030;-69
2021/01/13 12:36:15;;;;;;;5.50;3.67;;;12.30;40.30;;;;;;5036373;28;20303;-67
2021/01/13 12:38:43;;;;;;;6.40;4.72;;;12.10;40.10;;;;;;5036310;28;20100;-67
2021/01/13 12:41:09;;;;;;;7.28;4.60;;;12.10;41.50;;;;;;5036270;28;20483;-67
2021/01/13 12:43:36;;;;;;;6.65;4.57;;;12.00;39.80;;;;;;5036260;28;20030;-67
2021/01/13 12:46:02;;;;;;;5.90;4.65;;;11.90;40.40;;;;;;5039076;28;20062;-69
2021/01/13 12:48:28;;;;;;;7.00;4.75;;;11.80;40.40;;;;;;5040054;28;20029;-67
2021/01/13 12:50:53;;;;;;;6.10;4.68;;;11.60;40.60;;;;;;5039964;28;20022;-67
2021/01/13 12:53:19;;;;;;;6.93;5.20;;;11.50;41.70;;;;;;5040014;28;20025;-68
2021/01/13 12:55:44;;;;;;;8.73;4.50;;;11.30;41.00;;;;;;5040100;28;20048;-67
2021/01/13 12:58:10;;;;;;;5.65;4.60;;;11.00;40.40;;;;;;5040105;28;20406;-67
2021/01/13 13:00:36;;;;;;;5.63;4.10;;;10.70;42.10;;;;;;5039713;28;20029;-68
2021/01/13 13:03:03;;;;;;;7.55;5.30;;;10.30;41.90;;;;;;5039729;28;20056;-69
2021/01/13 13:05:28;;;;;;;7.13;5.15;;;9.90;43.90;;;;;;5039769;28;20104;-69
2021/01/13 13:07:54;;;;;;;5.70;4.65;;;9.60;46.40;;;;;;5039672;28;20107;-69
2021/01/13 13:10:20;;;;;;;7.90;5.18;;;9.30;46.60;;;;;;5039620;28;20165;-69
2021/01/13 13:12:45;;;;;;;7.72;5.25;;;9.00;45.70;;;;;;5039730;28;20030;-69
2021/01/13 13:15:11;;;;;;;7.47;5.53;;;8.50;47.40;;;;;;5039534;28;20108;-69